createdAt,value
2023-02-18T00:02:34.657Z,1.27
2023-02-18T00:07:38.036Z,1.97
2023-02-18T00:12:42.036Z,1.70
2023-02-18T00:17:43.974Z,1.33
2023-02-18T00:22:45.919Z,1.40
2023-02-18T00:27:49.542Z,2.00
2023-02-18T00:32:52.307Z,1.00
2023-02-18T00:37:54.742Z,1.30
2023-02-18T00:42:58.030Z,1.17
2023-02-18T00:47:59.822Z,1.00
2023-02-18T00:53:02.039Z,1.37
2023-02-18T00:58:05.813Z,1.30
2023-02-18T01:03:08.737Z,0.97
2023-02-18T01:08:11.525Z,1.40
2023-02-18T01:13:16.469Z,0.90
2023-02-18T01:18:18.794Z,1.03
2023-02-18T01:23:22.330Z,1.10
2023-02-18T01:28:26.510Z,1.20
2023-02-18T01:33:28.617Z,1.33
2023-02-18T01:38:31.000Z,1.33
2023-02-18T01:43:34.633Z,0.87
2023-02-18T01:48:40.014Z,1.07
2023-02-18T01:53:50.010Z,1.37
2023-02-18T01:58:57.112Z,1.30
2023-02-18T02:03:59.414Z,0.93
2023-02-18T02:09:06.941Z,1.17
2023-02-18T02:14:22.152Z,1.30
2023-02-18T02:19:59.447Z,0.90
2023-02-18T02:25:19.968Z,1.00
2023-02-18T02:30:54.569Z,1.50
2023-02-18T02:36:03.719Z,1.20
2023-02-18T02:41:18.605Z,1.20
2023-02-18T02:46:27.442Z,1.30
2023-02-18T02:51:35.954Z,1.00
2023-02-18T02:56:38.032Z,0.90
2023-02-18T03:01:56.671Z,0.77
2023-02-18T03:07:14.804Z,1.07
2023-02-18T03:12:23.354Z,0.50
2023-02-18T03:17:29.739Z,0.97
2023-02-18T03:22:38.637Z,1.10
2023-02-18T03:27:46.422Z,0.93
2023-02-18T03:32:51.125Z,0.57
2023-02-18T03:38:00.980Z,0.97
2023-02-18T03:43:03.075Z,0.70
2023-02-18T03:48:06.391Z,0.53
2023-02-18T03:53:10.340Z,1.10
2023-02-18T03:58:12.812Z,0.90
2023-02-18T04:03:15.183Z,0.83
2023-02-18T04:08:18.885Z,1.23
2023-02-18T04:13:21.461Z,0.70
2023-02-18T04:18:24.124Z,0.70
2023-02-18T04:23:27.903Z,1.10
2023-02-18T04:28:30.103Z,0.90
2023-02-18T04:33:32.293Z,0.80
2023-02-18T04:38:36.160Z,0.80
2023-02-18T04:43:38.293Z,0.90
2023-02-18T04:48:40.720Z,0.93
2023-02-18T04:53:43.843Z,0.77
2023-02-18T04:58:46.024Z,0.80
2023-02-18T05:03:48.459Z,0.60
2023-02-18T05:08:51.624Z,0.70
2023-02-18T05:13:53.597Z,0.63
2023-02-18T05:18:55.626Z,0.87
2023-02-18T05:23:59.043Z,1.30
2023-02-18T05:29:01.272Z,0.60
2023-02-18T05:34:02.973Z,0.83
2023-02-18T05:39:06.460Z,0.80
2023-02-18T05:44:09.009Z,0.93
2023-02-18T05:49:11.124Z,0.63
2023-02-18T05:54:14.597Z,0.73
2023-02-18T05:59:16.895Z,1.03
2023-02-18T06:04:19.361Z,1.10
2023-02-18T06:09:22.899Z,1.40
2023-02-18T06:14:25.303Z,0.60
2023-02-18T06:19:27.039Z,0.70
2023-02-18T06:24:30.933Z,1.17
2023-02-18T06:29:33.437Z,0.77
2023-02-18T06:34:35.244Z,0.63
2023-02-18T06:39:39.212Z,0.70
2023-02-18T06:44:41.194Z,1.00
2023-02-18T06:49:43.380Z,1.07
2023-02-18T06:54:47.274Z,0.70
2023-02-18T06:59:49.402Z,0.80
2023-02-18T07:04:51.442Z,1.00
2023-02-18T07:09:54.865Z,1.40
2023-02-18T07:14:56.832Z,1.03
2023-02-18T07:19:58.914Z,1.00
2023-02-18T07:25:03.096Z,0.70
2023-02-18T07:30:06.568Z,1.03
2023-02-18T07:35:10.495Z,1.30
2023-02-18T07:40:16.085Z,0.60
2023-02-18T07:45:17.904Z,0.90
2023-02-18T07:50:19.726Z,0.60
2023-02-18T07:55:22.895Z,0.80
2023-02-18T08:00:27.065Z,1.70
2023-02-18T08:05:29.196Z,1.30
2023-02-18T08:10:32.387Z,1.23
2023-02-18T08:15:34.145Z,0.83
2023-02-18T08:20:36.773Z,0.90
2023-02-18T08:25:40.703Z,1.53
2023-02-18T08:30:45.077Z,1.87
2023-02-18T08:35:48.033Z,1.33
2023-02-18T08:41:00.979Z,1.40
2023-02-18T08:46:03.985Z,1.40
2023-02-18T08:51:17.784Z,1.43
2023-02-18T08:56:21.627Z,1.23
2023-02-18T09:01:24.020Z,1.00
2023-02-18T09:06:26.509Z,1.23
2023-02-18T09:11:30.817Z,1.30
2023-02-18T09:16:33.369Z,1.20
2023-02-18T09:21:35.317Z,1.20
2023-02-18T09:26:38.980Z,1.50
2023-02-18T09:31:41.151Z,1.40
2023-02-18T09:36:42.923Z,1.20
2023-02-18T09:41:50.392Z,1.10
2023-02-18T09:46:55.596Z,1.20
2023-02-18T09:52:07.433Z,1.43
2023-02-18T09:57:23.742Z,1.37
2023-02-18T10:02:26.142Z,1.23
2023-02-18T10:07:31.779Z,1.97
2023-02-18T10:12:35.638Z,1.23
2023-02-18T10:17:38.889Z,1.83
2023-02-18T10:22:41.446Z,1.10
2023-02-18T10:27:45.848Z,1.20
2023-02-18T10:32:48.377Z,1.80
2023-02-18T10:38:01.377Z,2.20
2023-02-18T10:43:16.672Z,8.87
2023-02-18T10:48:55.475Z,5.87
2023-02-18T10:53:57.653Z,6.03
2023-02-18T10:59:09.659Z,3.30
2023-02-18T11:04:15.138Z,2.93
2023-02-18T11:09:30.616Z,5.50
2023-02-18T11:14:43.229Z,2.23
2023-02-18T11:19:53.132Z,6.30
2023-02-18T11:24:56.412Z,2.03
2023-02-18T11:30:05.597Z,4.63
2023-02-18T11:35:17.357Z,2.60
2023-02-18T11:40:25.054Z,1.50
2023-02-18T11:45:30.603Z,3.50
2023-02-18T11:50:34.434Z,2.97
2023-02-18T11:55:36.505Z,2.60
2023-02-18T12:00:42.889Z,2.20
2023-02-18T12:05:45.893Z,2.30
2023-02-18T12:10:50.488Z,2.40
2023-02-18T12:16:01.890Z,2.50
2023-02-18T12:21:16.637Z,2.30
2023-02-18T12:26:26.460Z,2.30
2023-02-18T12:31:45.562Z,3.23
2023-02-18T12:36:58.857Z,2.53
2023-02-18T12:42:14.410Z,2.67
2023-02-18T12:47:37.943Z,2.33
2023-02-18T12:52:50.353Z,1.83
2023-02-18T12:58:06.210Z,2.00
2023-02-18T13:03:34.766Z,1.83
2023-02-18T13:08:50.048Z,1.43
2023-02-18T13:14:00.978Z,1.60
2023-02-18T13:19:15.358Z,1.60
2023-02-18T13:24:26.604Z,1.30
2023-02-18T13:29:35.599Z,1.17
2023-02-18T13:34:47.385Z,1.40
2023-02-18T13:39:53.320Z,1.23
2023-02-18T13:45:28.363Z,1.60
2023-02-18T13:50:41.040Z,1.00
2023-02-18T13:55:53.258Z,0.97
2023-02-18T14:01:02.266Z,1.37
2023-02-18T14:06:20.646Z,1.20
2023-02-18T14:11:46.963Z,1.13
2023-02-18T14:17:13.441Z,1.00
2023-02-18T14:22:28.905Z,1.43
2023-02-18T14:27:30.957Z,1.60
2023-02-18T14:32:33.600Z,1.53
2023-02-18T14:38:01.991Z,1.40
2023-02-18T14:43:13.706Z,1.50
2023-02-18T14:48:33.635Z,1.20
2023-02-18T14:53:42.257Z,1.30
2023-02-18T14:58:47.526Z,1.00
2023-02-18T15:03:51.758Z,0.80
2023-02-18T15:08:54.932Z,0.50
2023-02-18T15:13:57.066Z,0.60
2023-02-18T15:19:03.079Z,0.60
2023-02-18T15:24:13.762Z,0.40
2023-02-18T15:29:19.494Z,0.43
2023-02-18T15:34:37.071Z,0.60
2023-02-18T15:39:41.815Z,0.60
2023-02-18T15:44:47.771Z,0.50
2023-02-18T15:49:53.453Z,0.50
2023-02-18T15:55:00.604Z,0.40
2023-02-18T16:00:07.170Z,0.60
2023-02-18T16:05:14.014Z,0.50
2023-02-18T16:10:21.580Z,0.50
2023-02-18T16:15:27.083Z,0.57
2023-02-18T16:20:32.479Z,0.50
2023-02-18T16:25:45.355Z,0.70
2023-02-18T16:30:47.430Z,0.50
2023-02-18T16:35:51.004Z,0.60
2023-02-18T16:40:54.647Z,0.50
2023-02-18T16:45:58.903Z,0.80
2023-02-18T16:51:04.750Z,0.70
2023-02-18T16:56:14.527Z,0.60
2023-02-18T17:01:23.499Z,0.40
2023-02-18T17:06:25.832Z,0.63
2023-02-18T17:11:32.450Z,0.70
2023-02-18T17:16:34.227Z,0.67
2023-02-18T17:21:36.240Z,0.50
2023-02-18T17:26:40.091Z,0.60
2023-02-18T17:31:44.834Z,0.40
2023-02-18T17:36:47.199Z,0.50
2023-02-18T17:41:52.049Z,0.70
2023-02-18T17:46:53.769Z,0.50
2023-02-18T17:51:58.060Z,0.60
2023-02-18T17:57:01.850Z,0.60
2023-02-18T18:02:04.067Z,0.77
2023-02-18T18:07:05.831Z,1.00
2023-02-18T18:12:14.653Z,0.83
2023-02-18T18:17:16.513Z,0.80
2023-02-18T18:22:18.489Z,1.20
2023-02-18T18:27:21.645Z,1.50
2023-02-18T18:32:23.424Z,1.60
2023-02-18T18:37:25.116Z,1.70
2023-02-18T18:42:28.204Z,1.47
2023-02-18T18:47:30.166Z,1.60
2023-02-18T18:52:31.982Z,1.23
2023-02-18T18:57:35.593Z,1.70
2023-02-18T19:02:37.406Z,1.60
2023-02-18T19:07:39.190Z,1.60
2023-02-18T19:12:42.489Z,1.70
2023-02-18T19:17:49.900Z,1.40
2023-02-18T19:22:52.494Z,1.80
2023-02-18T19:27:56.289Z,1.40
2023-02-18T19:33:00.833Z,1.30
2023-02-18T19:38:03.214Z,1.13
2023-02-18T19:43:07.331Z,0.70
2023-02-18T19:48:10.425Z,0.73
2023-02-18T19:53:12.520Z,0.60
2023-02-18T19:58:16.188Z,0.70
2023-02-18T20:03:18.108Z,0.47
2023-02-18T20:08:20.058Z,0.50
2023-02-18T20:13:24.293Z,0.60
2023-02-18T20:18:26.358Z,0.40
2023-02-18T20:23:28.765Z,0.50
2023-02-18T20:28:31.989Z,0.50
2023-02-18T20:33:34.167Z,0.57
2023-02-18T20:38:37.031Z,0.53
2023-02-18T20:43:41.035Z,0.80
2023-02-18T20:48:43.934Z,1.00
2023-02-18T20:53:47.291Z,1.10
2023-02-18T20:58:50.871Z,1.17
2023-02-18T21:03:53.088Z,1.20
2023-02-18T21:08:55.027Z,1.77
2023-02-18T21:13:59.027Z,1.53
2023-02-18T21:19:00.833Z,1.20
2023-02-18T21:24:03.654Z,1.30
2023-02-18T21:29:08.668Z,1.80
2023-02-18T21:34:12.899Z,1.53
2023-02-18T21:39:14.876Z,1.87
2023-02-18T21:44:18.394Z,2.00
2023-02-18T21:49:20.478Z,1.30
2023-02-18T21:54:25.436Z,1.50
2023-02-18T21:59:30.490Z,1.30
2023-02-18T22:04:35.159Z,1.40
2023-02-18T22:09:38.038Z,0.90
2023-02-18T22:14:42.621Z,1.03
2023-02-18T22:19:44.840Z,1.57
2023-02-18T22:24:47.069Z,1.70
2023-02-18T22:29:50.529Z,1.53
2023-02-18T22:34:53.934Z,1.50
2023-02-18T22:39:56.404Z,1.30
2023-02-18T22:45:00.006Z,1.60
2023-02-18T22:50:02.195Z,1.33
2023-02-18T22:55:04.296Z,1.40
2023-02-18T23:00:09.126Z,1.50
2023-02-18T23:05:11.269Z,1.73
2023-02-18T23:10:12.996Z,1.93
2023-02-18T23:15:16.565Z,1.33
2023-02-18T23:20:19.640Z,1.73
2023-02-18T23:25:22.014Z,1.93
2023-02-18T23:30:25.294Z,2.07
2023-02-18T23:35:27.293Z,1.60
2023-02-18T23:40:29.416Z,2.10
2023-02-18T23:45:32.868Z,2.20
2023-02-18T23:50:34.916Z,2.13
2023-02-18T23:55:37.059Z,2.23
